Time;durP1;ratioP1;P1;durP2;ratioP2;P2;SDS_P1;SDS_P2;PMS_P1;PMS_P2;Temp;Humidity;BMP_temperature;BMP_pressure;BME280_temperature;BME280_humidity;BME280_pressure;Samples;Min_cycle;Max_cycle;Signal;HPM_P1;HPM_P2
2024/02/15 00:00:11;;;;;;;8.27;7.87;;;13.80;29.00;;;;;;5055325;28;20916;-78
2024/02/15 00:02:36;;;;;;;8.07;7.67;;;13.80;29.10;;;;;;5057165;28;20414;-80
2024/02/15 00:05:02;;;;;;;7.80;7.50;;;13.80;29.00;;;;;;5056479;28;20406;-79
2024/02/15 00:07:30;;;;;;;8.27;7.73;;;13.80;29.00;;;;;;5056160;28;20239;-78
2024/02/15 00:09:59;;;;;;;7.77;7.37;;;13.80;28.90;;;;;;5053612;28;20180;-79
2024/02/15 00:12:24;;;;;;;7.30;7.00;;;13.80;28.90;;;;;;5055282;28;20478;-79
2024/02/15 00:14:53;;;;;;;8.00;7.70;;;13.80;29.00;;;;;;5056036;28;20960;-80
2024/02/15 00:17:21;;;;;;;8.60;7.93;;;13.80;29.10;;;;;;5056667;28;20683;-79
2024/02/15 00:19:47;;;;;;;8.30;8.00;;;13.80;29.00;;;;;;5054762;28;20411;-78
2024/02/15 00:22:16;;;;;;;7.70;7.40;;;13.80;29.10;;;;;;5056830;28;20471;-79
2024/02/15 00:24:48;;;;;;;8.03;7.63;;;13.80;29.20;;;;;;5055092;28;21076;-79
2024/02/15 00:27:15;;;;;;;7.90;7.60;;;13.70;29.20;;;;;;5054538;28;20864;-78
2024/02/15 00:29:41;;;;;;;7.50;7.20;;;13.70;29.20;;;;;;5053789;28;20438;-80
2024/02/15 00:32:06;;;;;;;7.20;6.80;;;13.80;29.30;;;;;;5055277;28;20765;-79
2024/02/15 00:34:33;;;;;;;8.17;7.77;;;13.70;29.30;;;;;;5056343;28;20184;-78
2024/02/15 00:36:59;;;;;;;8.30;7.90;;;13.70;29.30;;;;;;5055776;28;20641;-80
2024/02/15 00:39:24;;;;;;;8.10;7.63;;;13.70;29.40;;;;;;5054142;28;20421;-77
2024/02/15 00:41:50;;;;;;;7.27;6.97;;;13.70;29.40;;;;;;5055966;28;20176;-79
2024/02/15 00:44:17;;;;;;;7.70;7.50;;;13.70;29.60;;;;;;5055254;28;20231;-78
2024/02/15 00:46:43;;;;;;;7.67;7.27;;;13.70;29.50;;;;;;5055852;28;20286;-79
2024/02/15 00:49:08;;;;;;;7.47;7.10;;;13.70;29.40;;;;;;5055193;28;20507;-79
2024/02/15 00:51:36;;;;;;;8.17;7.67;;;13.70;29.40;;;;;;5055738;28;20188;-78
2024/02/15 00:54:07;;;;;;;7.57;7.27;;;13.70;29.40;;;;;;5055313;28;20176;-80
2024/02/15 00:56:32;;;;;;;8.40;8.00;;;13.70;29.30;;;;;;5053985;28;20442;-78
2024/02/15 00:59:03;;;;;;;8.60;8.10;;;13.60;29.50;;;;;;5054714;28;20411;-78
2024/02/15 01:01:28;;;;;;;8.20;7.70;;;13.60;29.70;;;;;;5053835;28;20639;-79
2024/02/15 01:03:55;;;;;;;7.60;7.30;;;13.60;29.70;;;;;;5055849;28;20410;-79
2024/02/15 01:06:20;;;;;;;7.10;6.70;;;13.60;29.60;;;;;;5055491;28;20558;-78
2024/02/15 01:08:48;;;;;;;7.67;7.37;;;13.70;29.40;;;;;;5054807;28;20434;-78
2024/02/15 01:11:14;;;;;;;7.43;7.13;;;13.70;29.30;;;;;;5053671;28;20648;-79
2024/02/15 01:13:44;;;;;;;7.50;7.10;;;13.70;29.30;;;;;;5054508;28;20437;-79
2024/02/15 01:16:09;;;;;;;7.13;6.70;;;13.70;29.10;;;;;;5055124;28;20267;-79
2024/02/15 01:18:37;;;;;;;7.77;7.37;;;13.60;29.60;;;;;;5054827;28;20560;-79
2024/02/15 01:21:03;;;;;;;7.43;7.13;;;13.60;29.60;;;;;;5053985;28;20188;-78
2024/02/15 01:23:29;;;;;;;8.07;7.67;;;13.60;29.40;;;;;;5056271;28;20422;-79
2024/02/15 01:25:54;;;;;;;8.20;7.90;;;13.70;29.30;;;;;;5054726;28;20434;-79
2024/02/15 01:28:20;;;;;;;7.57;7.27;;;13.70;29.30;;;;;;5054525;28;20223;-79
2024/02/15 01:30:46;;;;;;;8.50;7.90;;;13.60;29.30;;;;;;5056477;28;20719;-78
2024/02/15 01:33:12;;;;;;;7.97;7.67;;;13.50;29.30;;;;;;5057394;28;20192;-79
2024/02/15 01:35:38;;;;;;;8.17;7.67;;;13.50;29.50;;;;;;5056631;28;20433;-78
2024/02/15 01:38:05;;;;;;;8.37;7.80;;;13.60;29.40;;;;;;5055915;28;20569;-79
2024/02/15 01:40:31;;;;;;;7.57;7.17;;;13.60;29.20;;;;;;5054915;28;20271;-79
2024/02/15 01:42:58;;;;;;;7.73;7.27;;;13.60;29.20;;;;;;5057506;28;20458;-78
2024/02/15 01:45:25;;;;;;;7.53;7.20;;;13.60;28.90;;;;;;5058629;28;20176;-79
2024/02/15 01:47:52;;;;;;;8.20;7.80;;;13.50;29.30;;;;;;5056236;28;20885;-79
2024/02/15 01:50:21;;;;;;;7.67;7.27;;;13.50;29.10;;;;;;5057542;28;20453;-79
2024/02/15 01:52:47;;;;;;;7.40;6.93;;;13.60;29.10;;;;;;5056061;28;20950;-79
2024/02/15 01:55:15;;;;;;;7.80;7.50;;;13.60;29.00;;;;;;5057685;28;20816;-80
2024/02/15 01:57:45;;;;;;;7.20;7.00;;;13.60;28.80;;;;;;5055556;28;20465;-79
2024/02/15 02:00:12;;;;;;;7.87;7.57;;;13.60;28.70;;;;;;5056024;28;20418;-79
2024/02/15 02:02:41;;;;;;;8.40;8.00;;;13.60;28.60;;;;;;5039891;28;21012;-79
2024/02/15 02:05:08;;;;;;;7.13;6.93;;;13.60;28.60;;;;;;5040087;28;20654;-80
2024/02/15 02:07:33;;;;;;;7.80;7.50;;;13.60;28.40;;;;;;5056275;28;20446;-80
2024/02/15 02:10:02;;;;;;;7.63;7.30;;;13.60;28.50;;;;;;5057686;28;20429;-79
2024/02/15 02:12:28;;;;;;;7.47;7.17;;;13.60;28.30;;;;;;5056743;28;20445;-80
2024/02/15 02:14:54;;;;;;;8.43;8.03;;;13.60;28.30;;;;;;5056217;28;20427;-80
2024/02/15 02:17:22;;;;;;;7.87;7.57;;;13.60;28.20;;;;;;5057432;28;20572;-79
2024/02/15 02:19:50;;;;;;;8.77;8.37;;;13.60;28.30;;;;;;5057229;28;20419;-80
2024/02/15 02:22:17;;;;;;;8.00;7.70;;;13.60;28.20;;;;;;5057379;28;20438;-79
2024/02/15 02:25:06;;;;;;;8.50;8.10;;;13.60;28.20;;;;;;5056000;28;20469;-79
2024/02/15 02:27:38;;;;;;;8.50;8.00;;;13.50;28.30;;;;;;5057108;28;20449;-80
2024/02/15 02:30:21;;;;;;;8.20;7.80;;;13.50;28.50;;;;;;5057383;28;20426;-80
2024/02/15 02:32:49;;;;;;;7.87;7.43;;;13.50;28.60;;;;;;5055748;28;20426;-78
2024/02/15 02:35:16;;;;;;;7.90;7.50;;;13.50;28.30;;;;;;5056970;28;20422;-80
2024/02/15 02:37:42;;;;;;;8.90;8.30;;;13.40;28.40;;;;;;5056121;28;20542;-79
2024/02/15 02:40:09;;;;;;;8.23;7.83;;;13.40;28.30;;;;;;5047073;28;20418;-79
2024/02/15 02:42:56;;;;;;;9.00;8.60;;;13.40;28.30;;;;;;5056530;28;20989;-80
2024/02/15 02:45:22;;;;;;;7.80;7.50;;;13.40;28.40;;;;;;5057014;28;20513;-80
2024/02/15 02:47:49;;;;;;;8.30;7.90;;;13.40;28.30;;;;;;5057163;28;20434;-79
2024/02/15 02:50:14;;;;;;;8.73;8.10;;;13.40;28.20;;;;;;5057755;28;20419;-80
2024/02/15 02:52:40;;;;;;;8.07;7.77;;;13.40;28.20;;;;;;5055337;28;20802;-80
2024/02/15 02:55:09;;;;;;;7.73;7.43;;;13.40;28.20;;;;;;5055397;28;20822;-79
2024/02/15 02:57:37;;;;;;;7.93;7.53;;;13.40;28.20;;;;;;5056252;28;20679;-79
2024/02/15 03:00:12;;;;;;;8.10;7.80;;;13.40;28.20;;;;;;5055326;28;20418;-79
2024/02/15 03:02:39;;;;;;;8.20;7.80;;;13.40;28.30;;;;;;5056609;28;20414;-80
2024/02/15 03:05:06;;;;;;;7.30;7.10;;;13.30;28.20;;;;;;5056667;28;20422;-79
2024/02/15 03:07:35;;;;;;;7.40;7.10;;;13.30;28.20;;;;;;5054618;28;20446;-80
2024/02/15 03:10:02;;;;;;;7.67;7.37;;;13.30;28.30;;;;;;5055217;28;20926;-79
2024/02/15 03:12:50;;;;;;;8.60;8.10;;;13.30;28.20;;;;;;5055170;28;20521;-80
2024/02/15 03:15:16;;;;;;;7.83;7.53;;;13.30;28.20;;;;;;5054725;28;20423;-80
2024/02/15 03:17:47;;;;;;;7.97;7.57;;;13.30;28.10;;;;;;5054106;28;20480;-80
2024/02/15 03:20:21;;;;;;;8.43;8.10;;;13.20;28.50;;;;;;5055228;28;20183;-80
2024/02/15 03:22:57;;;;;;;8.43;8.03;;;13.20;28.30;;;;;;5055249;28;20519;-80
2024/02/15 03:25:24;;;;;;;8.90;8.23;;;13.20;28.30;;;;;;5054635;28;20410;-80
2024/02/15 03:27:51;;;;;;;7.80;7.40;;;13.20;28.20;;;;;;5054233;28;20457;-80
2024/02/15 03:30:19;;;;;;;7.80;7.50;;;13.20;28.10;;;;;;5054503;28;20992;-80
2024/02/15 03:32:48;;;;;;;8.30;7.70;;;13.20;28.20;;;;;;5054542;28;20418;-79
2024/02/15 03:35:15;;;;;;;7.73;7.43;;;13.20;28.20;;;;;;5030458;28;20837;-79
2024/02/15 03:37:41;;;;;;;8.33;7.93;;;13.20;28.10;;;;;;5054179;28;20825;-79
2024/02/15 03:40:08;;;;;;;8.00;7.70;;;13.20;28.20;;;;;;5054780;28;20422;-79
2024/02/15 03:42:36;;;;;;;8.13;7.83;;;13.10;28.20;;;;;;5055559;28;20705;-79
2024/02/15 03:45:08;;;;;;;7.70;7.40;;;13.00;28.50;;;;;;5054192;28;20918;-78
2024/02/15 03:47:35;;;;;;;8.77;8.27;;;13.00;28.60;;;;;;5054312;28;20450;-79
2024/02/15 03:50:10;;;;;;;8.17;7.57;;;13.00;28.70;;;;;;5037817;28;20426;-80
2024/02/15 03:52:37;;;;;;;8.83;8.43;;;13.00;28.60;;;;;;5054572;28;20422;-79
2024/02/15 03:55:03;;;;;;;8.07;7.77;;;13.00;28.50;;;;;;5053858;28;20501;-79
2024/02/15 03:57:29;;;;;;;8.50;8.17;;;13.00;28.40;;;;;;5051932;28;20526;-78
2024/02/15 03:59:56;;;;;;;8.83;8.47;;;13.00;28.50;;;;;;5050671;28;20184;-78
2024/02/15 04:02:30;;;;;;;9.30;8.80;;;12.90;28.50;;;;;;5055591;28;20407;-78
2024/02/15 04:04:58;;;;;;;8.87;8.53;;;12.90;28.60;;;;;;5040838;28;20420;-79
2024/02/15 04:07:26;;;;;;;9.00;8.70;;;12.90;28.60;;;;;;5050694;28;20449;-78
2024/02/15 04:09:55;;;;;;;8.40;8.10;;;12.90;28.60;;;;;;5046759;28;20415;-79
2024/02/15 04:12:21;;;;;;;9.10;8.60;;;12.90;28.70;;;;;;5057662;28;20475;-78
2024/02/15 04:14:47;;;;;;;8.50;8.20;;;12.90;28.70;;;;;;5076489;28;20259;-77
2024/02/15 04:17:22;;;;;;;8.77;8.37;;;13.00;28.80;;;;;;5076345;28;20489;-80
2024/02/15 04:19:54;;;;;;;8.80;8.30;;;13.00;28.70;;;;;;5076408;28;20432;-79
2024/02/15 04:22:19;;;;;;;8.53;8.07;;;13.10;28.50;;;;;;5076355;28;20411;-80
2024/02/15 04:24:45;;;;;;;9.53;8.93;;;13.20;28.30;;;;;;5075175;28;20438;-78
2024/02/15 04:27:14;;;;;;;9.13;8.50;;;13.20;27.90;;;;;;5057145;28;20275;-77
2024/02/15 04:29:41;;;;;;;9.37;8.77;;;13.20;28.00;;;;;;5052984;28;20175;-78
2024/02/15 04:32:10;;;;;;;9.07;8.63;;;13.20;28.40;;;;;;5053884;28;20904;-77
2024/02/15 04:34:39;;;;;;;9.13;8.50;;;13.20;28.30;;;;;;5053602;28;20418;-79
2024/02/15 04:37:07;;;;;;;9.20;8.80;;;13.30;28.40;;;;;;5053891;28;20462;-78
2024/02/15 04:39:33;;;;;;;8.77;8.47;;;13.30;27.90;;;;;;5051998;28;20446;-77
2024/02/15 04:42:00;;;;;;;9.43;8.83;;;13.40;27.90;;;;;;5053806;28;20426;-77
2024/02/15 04:44:27;;;;;;;9.50;9.00;;;13.40;27.70;;;;;;5053234;28;20489;-78
2024/02/15 04:46:53;;;;;;;8.97;8.57;;;13.40;27.80;;;;;;5054055;28;20965;-79
2024/02/15 04:49:19;;;;;;;9.50;8.90;;;13.50;27.60;;;;;;5056984;28;20474;-79
2024/02/15 04:51:44;;;;;;;8.90;8.50;;;13.50;27.40;;;;;;5059765;28;20460;-78
2024/02/15 04:54:13;;;;;;;9.37;8.87;;;13.60;27.10;;;;;;5056709;28;20184;-80
2024/02/15 04:56:40;;;;;;;8.80;8.50;;;13.60;26.90;;;;;;5057018;28;20207;-80
2024/02/15 04:59:08;;;;;;;8.43;8.03;;;13.50;27.00;;;;;;5055389;28;20422;-79
2024/02/15 05:01:34;;;;;;;10.00;9.40;;;13.50;27.00;;;;;;5057684;28;20454;-79
2024/02/15 05:04:07;;;;;;;9.07;8.77;;;13.50;26.80;;;;;;5056553;28;20414;-81
2024/02/15 05:06:32;;;;;;;7.80;7.50;;;13.30;27.60;;;;;;5055497;28;20443;-80
2024/02/15 05:08:59;;;;;;;8.97;8.57;;;13.40;27.60;;;;;;5054788;28;20452;-79
2024/02/15 05:11:25;;;;;;;8.43;8.10;;;13.40;26.60;;;;;;5056395;28;20168;-79
2024/02/15 05:13:51;;;;;;;8.63;8.33;;;13.30;27.20;;;;;;5056736;28;20425;-80
2024/02/15 05:16:17;;;;;;;9.70;9.30;;;13.30;27.40;;;;;;5056435;28;20743;-79
2024/02/15 05:18:43;;;;;;;9.10;8.70;;;13.30;27.20;;;;;;5055675;28;20511;-79
2024/02/15 05:21:11;;;;;;;8.93;8.43;;;13.40;27.10;;;;;;5057962;28;20426;-81
2024/02/15 05:23:41;;;;;;;8.67;8.33;;;13.40;26.90;;;;;;5063082;28;20551;-80
2024/02/15 05:26:08;;;;;;;8.90;8.50;;;13.50;26.70;;;;;;5063152;28;20450;-80
2024/02/15 05:28:34;;;;;;;8.10;7.70;;;13.50;26.90;;;;;;5073779;28;20481;-78
2024/02/15 05:31:20;;;;;;;8.80;8.50;;;13.50;26.50;;;;;;5073861;28;20422;-78
2024/02/15 05:33:47;;;;;;;9.33;8.83;;;13.40;26.10;;;;;;5073025;28;20537;-78
2024/02/15 05:36:23;;;;;;;9.03;8.50;;;13.30;26.70;;;;;;5070113;28;20418;-79
2024/02/15 05:38:53;;;;;;;8.90;8.50;;;13.20;27.20;;;;;;5070621;28;20462;-77
2024/02/15 05:41:20;;;;;;;8.10;7.83;;;13.20;27.80;;;;;;5051350;28;20441;-78
2024/02/15 05:43:48;;;;;;;8.83;8.43;;;13.20;27.20;;;;;;5058191;28;20779;-78
2024/02/15 05:46:14;;;;;;;8.77;8.27;;;13.30;27.10;;;;;;5056631;28;20430;-78
2024/02/15 05:48:39;;;;;;;7.83;7.53;;;13.40;26.80;;;;;;5057648;28;20517;-79
2024/02/15 05:51:07;;;;;;;8.20;7.60;;;13.40;26.50;;;;;;5055044;28;20754;-79
2024/02/15 05:53:36;;;;;;;7.47;7.17;;;13.40;26.10;;;;;;5056909;28;20188;-77
2024/02/15 05:56:13;;;;;;;7.60;7.20;;;13.50;26.10;;;;;;5055960;28;20476;-78
2024/02/15 05:58:42;;;;;;;8.40;8.00;;;13.40;25.80;;;;;;5057213;28;20465;-79
2024/02/15 06:01:11;;;;;;;7.97;7.57;;;13.20;25.80;;;;;;5057824;28;20825;-79
2024/02/15 06:03:39;;;;;;;7.40;7.00;;;12.90;26.70;;;;;;5056850;28;20819;-77
2024/02/15 06:06:08;;;;;;;8.57;7.90;;;12.70;27.30;;;;;;5057890;28;20448;-78
2024/02/15 06:08:35;;;;;;;8.50;8.20;;;12.70;27.50;;;;;;5056590;28;20418;-80
2024/02/15 06:11:01;;;;;;;9.90;9.30;;;12.80;27.30;;;;;;5056140;28;20452;-80
2024/02/15 06:13:27;;;;;;;8.63;8.20;;;12.70;27.30;;;;;;5056751;28;20782;-80
2024/02/15 06:15:53;;;;;;;9.00;8.60;;;12.60;27.80;;;;;;5058018;28;20421;-79
2024/02/15 06:18:32;;;;;;;9.43;8.93;;;12.50;27.60;;;;;;5057528;28;20278;-79
2024/02/15 06:21:02;;;;;;;9.33;9.03;;;12.50;28.00;;;;;;5058886;28;20791;-79
2024/02/15 06:23:28;;;;;;;9.23;8.73;;;12.30;28.10;;;;;;5058299;28;20512;-79
2024/02/15 06:25:58;;;;;;;9.03;8.40;;;12.30;28.00;;;;;;5058598;28;20473;-79
2024/02/15 06:39:42;;;;;;;8.80;8.40;;;12.90;27.20;;;;;;5056851;28;20822;-78
2024/02/15 06:42:17;;;;;;;9.53;9.10;;;13.00;26.80;;;;;;5055999;28;20419;-79
2024/02/15 06:44:44;;;;;;;8.97;8.47;;;13.10;26.60;;;;;;5056043;28;20786;-79
2024/02/15 06:47:10;;;;;;;9.10;8.50;;;13.10;26.40;;;;;;5050145;28;20819;-79
2024/02/15 06:49:39;;;;;;;9.30;8.90;;;13.20;26.20;;;;;;5056053;28;20418;-79
2024/02/15 06:52:07;;;;;;;9.43;9.00;;;13.20;26.10;;;;;;5056293;28;20184;-78
2024/02/15 06:54:35;;;;;;;9.40;9.00;;;13.20;26.20;;;;;;5056020;28;20513;-79
2024/02/15 06:57:02;;;;;;;9.83;9.43;;;13.20;26.10;;;;;;5056659;28;21008;-79
2024/02/15 06:59:27;;;;;;;8.80;8.40;;;13.20;25.80;;;;;;5057105;28;20864;-79
2024/02/15 07:01:53;;;;;;;9.90;9.40;;;13.20;25.70;;;;;;5057315;28;20498;-81
2024/02/15 07:04:20;;;;;;;10.23;9.83;;;13.20;25.50;;;;;;5057550;28;20176;-79
2024/02/15 07:06:47;;;;;;;9.10;8.60;;;13.30;25.40;;;;;;5057013;28;20460;-78
2024/02/15 07:09:19;;;;;;;9.10;8.70;;;13.20;25.40;;;;;;5054015;28;20560;-78
2024/02/15 07:11:46;;;;;;;9.53;9.13;;;13.20;25.40;;;;;;5055612;28;20427;-78
2024/02/15 07:14:12;;;;;;;9.80;9.07;;;13.20;25.40;;;;;;5055668;28;20468;-78
2024/02/15 07:16:38;;;;;;;9.17;8.77;;;13.20;25.50;;;;;;5048679;28;20832;-80
2024/02/15 07:19:03;;;;;;;10.03;9.63;;;13.20;25.40;;;;;;5055351;28;20418;-77
2024/02/15 07:21:31;;;;;;;9.57;8.80;;;13.20;25.40;;;;;;5058640;28;20191;-77
2024/02/15 07:23:56;;;;;;;8.80;8.20;;;13.30;25.40;;;;;;5058110;28;20655;-77
2024/02/15 07:26:27;;;;;;;8.87;8.23;;;13.20;25.40;;;;;;5055539;28;20438;-79
2024/02/15 07:28:57;;;;;;;9.43;9.03;;;13.20;25.40;;;;;;5055160;28;20211;-79
2024/02/15 07:31:23;;;;;;;9.03;8.63;;;13.20;25.40;;;;;;5055753;28;20428;-79
2024/02/15 07:33:51;;;;;;;10.03;9.23;;;13.30;25.40;;;;;;5055660;28;20746;-78
2024/02/15 07:36:23;;;;;;;9.33;8.93;;;13.30;25.50;;;;;;5052445;28;20426;-79
2024/02/15 07:38:51;;;;;;;9.40;9.00;;;13.30;25.40;;;;;;5053408;28;20465;-79
2024/02/15 07:41:19;;;;;;;9.27;8.77;;;13.30;25.40;;;;;;5054335;28;20490;-78
2024/02/15 07:43:46;;;;;;;10.00;9.50;;;13.10;25.30;;;;;;5053254;28;20509;-78
2024/02/15 07:46:16;;;;;;;9.23;8.73;;;13.00;25.80;;;;;;5053897;28;20497;-82
2024/02/15 07:48:46;;;;;;;9.90;9.30;;;12.90;25.80;;;;;;5052654;28;20472;-79
2024/02/15 07:51:22;;;;;;;9.60;9.10;;;12.70;26.20;;;;;;5053278;28;20430;-78
2024/02/15 07:53:49;;;;;;;9.53;9.00;;;12.70;26.70;;;;;;5054628;28;20922;-79
2024/02/15 07:56:16;;;;;;;9.63;9.23;;;12.60;26.70;;;;;;5055299;28;20556;-79
2024/02/15 07:58:46;;;;;;;10.00;9.40;;;12.40;27.10;;;;;;5055037;28;20527;-78
2024/02/15 08:01:16;;;;;;;10.30;9.83;;;12.40;27.20;;;;;;5055486;28;20414;-79
2024/02/15 08:03:44;;;;;;;10.10;9.43;;;12.40;27.10;;;;;;5054941;28;20418;-78
2024/02/15 08:06:12;;;;;;;9.17;8.73;;;12.40;27.00;;;;;;5053944;28;20787;-79
2024/02/15 08:08:42;;;;;;;9.03;8.73;;;12.30;27.10;;;;;;5054632;28;20419;-79
2024/02/15 08:11:14;;;;;;;9.70;9.30;;;12.20;27.50;;;;;;5055289;28;20483;-78
2024/02/15 08:13:44;;;;;;;9.13;8.73;;;12.20;27.40;;;;;;5052174;28;20410;-80
2024/02/15 08:16:11;;;;;;;9.50;8.90;;;12.10;27.60;;;;;;5054965;28;20413;-79
2024/02/15 08:18:37;;;;;;;10.70;10.00;;;12.20;27.80;;;;;;5051780;28;20469;-79
2024/02/15 08:21:04;;;;;;;8.83;8.43;;;12.20;27.60;;;;;;5056306;28;20476;-78
2024/02/15 08:23:29;;;;;;;8.93;8.50;;;12.30;27.60;;;;;;5056490;28;20937;-78
2024/02/15 08:25:55;;;;;;;9.93;9.23;;;12.30;27.60;;;;;;5054369;28;20411;-78
2024/02/15 08:28:25;;;;;;;9.53;9.00;;;12.30;27.70;;;;;;5054405;28;20199;-79
2024/02/15 08:30:54;;;;;;;9.07;8.50;;;12.40;27.60;;;;;;5053289;28;20172;-80
2024/02/15 08:33:20;;;;;;;9.97;9.47;;;12.50;27.40;;;;;;5035763;28;20476;-79
2024/02/15 08:35:45;;;;;;;8.47;8.07;;;12.50;27.40;;;;;;5053418;28;20422;-77
2024/02/15 08:38:11;;;;;;;9.37;8.80;;;12.60;27.50;;;;;;5054804;28;20835;-79
2024/02/15 08:40:36;;;;;;;9.80;9.03;;;12.80;28.00;;;;;;5055246;28;20176;-78
2024/02/15 08:43:02;;;;;;;9.00;8.60;;;12.90;26.90;;;;;;5056195;28;20225;-81
2024/02/15 08:45:28;;;;;;;9.23;8.67;;;13.10;26.70;;;;;;5057374;28;20168;-79
2024/02/15 08:47:53;;;;;;;10.40;10.00;;;13.10;26.10;;;;;;5051826;28;20529;-78
2024/02/15 08:50:21;;;;;;;10.50;9.80;;;13.10;25.80;;;;;;5046753;28;20254;-77
2024/02/15 08:52:46;;;;;;;9.97;9.43;;;13.20;25.40;;;;;;5046122;28;20183;-81
2024/02/15 08:55:14;;;;;;;9.13;8.63;;;13.10;25.70;;;;;;5055279;28;20428;-79
2024/02/15 08:57:40;;;;;;;8.23;7.90;;;12.90;25.90;;;;;;5055585;28;20249;-80
2024/02/15 09:00:13;;;;;;;7.93;7.53;;;12.90;26.20;;;;;;5056027;28;20803;-80
2024/02/15 09:02:52;;;;;;;8.23;7.73;;;12.80;26.40;;;;;;5055426;28;20437;-79
2024/02/15 09:05:18;;;;;;;8.83;8.30;;;12.80;26.50;;;;;;5055626;28;20493;-80
2024/02/15 09:07:50;;;;;;;9.40;8.90;;;12.80;26.70;;;;;;5053743;28;20478;-81
2024/02/15 09:10:18;;;;;;;8.53;8.13;;;12.80;26.70;;;;;;5053176;28;20253;-79
2024/02/15 09:12:47;;;;;;;8.80;8.30;;;12.80;26.60;;;;;;5055278;28;20948;-80
2024/02/15 09:15:15;;;;;;;8.60;8.10;;;12.90;26.50;;;;;;5053402;28;20506;-78
2024/02/15 09:17:43;;;;;;;8.20;7.90;;;12.80;26.30;;;;;;5049957;28;20478;-79
2024/02/15 09:20:14;;;;;;;8.83;8.33;;;12.80;26.30;;;;;;5069310;28;20430;-78
2024/02/15 09:23:04;;;;;;;9.03;8.47;;;12.90;26.20;;;;;;5051901;28;20469;-80
2024/02/15 09:25:31;;;;;;;8.13;7.80;;;13.00;25.90;;;;;;5051686;28;20418;-79
2024/02/15 09:27:56;;;;;;;8.90;8.50;;;13.00;25.60;;;;;;5049819;28;20437;-77
2024/02/15 09:30:24;;;;;;;8.67;8.27;;;13.00;25.70;;;;;;5047941;28;20893;-78
2024/02/15 09:32:50;;;;;;;8.93;8.43;;;13.20;25.60;;;;;;5053498;28;20690;-78
2024/02/15 09:35:16;;;;;;;8.07;7.57;;;13.30;25.50;;;;;;5043961;28;20407;-78
2024/02/15 09:37:46;;;;;;;8.10;7.70;;;13.30;25.50;;;;;;5051723;28;20207;-79
2024/02/15 09:40:13;;;;;;;8.07;7.57;;;13.40;25.30;;;;;;5050839;28;20222;-78
2024/02/15 09:42:39;;;;;;;7.47;7.17;;;13.50;25.50;;;;;;5053397;28;20405;-77
2024/02/15 09:45:06;;;;;;;7.10;6.73;;;13.50;25.00;;;;;;5052450;28;20505;-79
2024/02/15 09:47:40;;;;;;;8.50;7.87;;;13.60;24.90;;;;;;5055531;28;20430;-79
2024/02/15 09:50:07;;;;;;;8.40;8.00;;;13.60;24.90;;;;;;5054649;28;20406;-78
2024/02/15 09:52:35;;;;;;;8.03;7.63;;;13.70;24.40;;;;;;5052642;28;20445;-78
2024/02/15 09:55:03;;;;;;;7.57;7.23;;;13.70;24.30;;;;;;5051367;28;20426;-77
2024/02/15 09:57:29;;;;;;;7.83;7.40;;;13.80;24.20;;;;;;5042834;28;20558;-78
2024/02/15 09:59:55;;;;;;;8.20;7.83;;;13.80;24.00;;;;;;5042722;28;20771;-78
2024/02/15 10:02:21;;;;;;;8.70;8.10;;;13.80;23.80;;;;;;5046525;28;20429;-78
2024/02/15 10:04:47;;;;;;;7.53;7.20;;;13.80;23.70;;;;;;5055583;28;20172;-77
2024/02/15 10:07:13;;;;;;;7.87;7.47;;;13.90;23.90;;;;;;5038015;28;20449;-79
2024/02/15 10:09:42;;;;;;;9.20;8.57;;;13.90;23.20;;;;;;5054935;28;20505;-78
2024/02/15 10:12:09;;;;;;;7.60;7.30;;;13.90;23.30;;;;;;5052231;28;20418;-79
2024/02/15 10:14:35;;;;;;;7.60;7.20;;;13.80;23.30;;;;;;5054712;28;20442;-79
2024/02/15 10:17:09;;;;;;;8.27;7.87;;;13.80;24.00;;;;;;5056561;28;20497;-79
2024/02/15 10:19:35;;;;;;;7.60;7.20;;;14.00;23.70;;;;;;5057262;28;20410;-80
2024/02/15 10:22:07;;;;;;;6.97;6.60;;;14.10;23.30;;;;;;5059248;28;20414;-79
2024/02/15 10:24:32;;;;;;;7.43;7.03;;;14.20;22.80;;;;;;5051093;28;20202;-78
2024/02/15 10:27:03;;;;;;;7.67;7.27;;;14.20;22.60;;;;;;5058462;28;20843;-78
2024/02/15 10:29:30;;;;;;;7.80;7.30;;;14.30;22.40;;;;;;5057211;28;20184;-80
2024/02/15 10:31:58;;;;;;;7.90;7.50;;;14.30;22.90;;;;;;5058617;28;20418;-77
2024/02/15 10:34:27;;;;;;;8.30;7.80;;;14.40;22.70;;;;;;5057331;28;20444;-78
2024/02/15 10:37:11;;;;;;;7.30;6.90;;;14.50;22.90;;;;;;5058756;28;20430;-78
2024/02/15 10:39:36;;;;;;;7.80;7.40;;;14.50;20.70;;;;;;5055994;28;20445;-79
2024/02/15 10:42:03;;;;;;;7.00;6.70;;;14.50;20.20;;;;;;5057365;28;20427;-78
2024/02/15 10:44:28;;;;;;;7.17;6.87;;;14.60;21.20;;;;;;5058898;28;20191;-79
2024/02/15 10:46:54;;;;;;;7.23;6.93;;;14.70;21.80;;;;;;5060074;28;20438;-80
2024/02/15 10:49:21;;;;;;;7.30;6.90;;;14.80;22.50;;;;;;5059842;28;20175;-80
2024/02/15 10:51:54;;;;;;;7.57;7.17;;;14.80;22.30;;;;;;5060637;28;20407;-80
2024/02/15 10:54:40;;;;;;;7.77;7.43;;;14.90;22.40;;;;;;5059374;28;20840;-80
2024/02/15 10:57:06;;;;;;;7.73;7.33;;;15.00;21.20;;;;;;5060658;28;20458;-80
2024/02/15 10:59:37;;;;;;;7.60;7.30;;;15.00;20.10;;;;;;5058052;28;20425;-80
2024/02/15 11:02:22;;;;;;;6.70;6.30;;;15.00;19.60;;;;;;5060446;28;20766;-79
2024/02/15 11:04:55;;;;;;;7.20;6.90;;;15.00;19.00;;;;;;5051957;28;20780;-79
2024/02/15 11:07:21;;;;;;;6.70;6.40;;;14.90;19.30;;;;;;5059999;28;20445;-79
2024/02/15 11:09:47;;;;;;;7.53;6.90;;;15.00;20.00;;;;;;5057398;28;20433;-79
2024/02/15 11:12:13;;;;;;;7.70;7.30;;;15.10;19.50;;;;;;5059232;28;20415;-79
2024/02/15 11:14:44;;;;;;;7.17;6.90;;;15.10;19.10;;;;;;5059241;28;20860;-79
2024/02/15 11:17:13;;;;;;;6.73;6.53;;;15.10;19.30;;;;;;5058971;28;20504;-77
2024/02/15 11:19:47;;;;;;;6.83;6.63;;;15.20;19.50;;;;;;5058647;28;20450;-79
2024/02/15 11:22:15;;;;;;;7.50;7.20;;;15.30;19.80;;;;;;5059534;28;20775;-80
2024/02/15 11:24:51;;;;;;;7.30;7.00;;;15.30;19.60;;;;;;5058372;28;20461;-79
2024/02/15 11:27:31;;;;;;;7.30;7.00;;;15.30;19.20;;;;;;5059682;28;20430;-79
2024/02/15 11:30:03;;;;;;;7.83;7.43;;;15.30;19.10;;;;;;5058267;28;20426;-79
2024/02/15 11:32:45;;;;;;;7.30;6.67;;;15.20;19.40;;;;;;5058810;28;20423;-79
2024/02/15 11:35:13;;;;;;;7.17;6.87;;;15.30;19.60;;;;;;5057566;28;20414;-79
2024/02/15 11:37:48;;;;;;;7.17;6.67;;;15.30;19.30;;;;;;5058074;28;20466;-79
2024/02/15 11:40:18;;;;;;;6.90;6.57;;;15.30;19.30;;;;;;5054803;28;20552;-79
2024/02/15 11:42:45;;;;;;;8.07;7.67;;;15.30;19.40;;;;;;5053549;28;20415;-79
2024/02/15 11:45:12;;;;;;;6.70;6.40;;;15.20;19.70;;;;;;5058333;28;20414;-78
2024/02/15 11:47:39;;;;;;;7.80;7.40;;;15.30;19.50;;;;;;5056802;28;20455;-79
2024/02/15 11:50:12;;;;;;;7.07;6.77;;;15.30;19.50;;;;;;5050884;28;20448;-78
2024/02/15 11:52:41;;;;;;;7.40;7.00;;;15.30;19.50;;;;;;5055631;28;20425;-79
2024/02/15 11:55:09;;;;;;;6.90;6.60;;;15.40;19.80;;;;;;5057291;28;20429;-77
2024/02/15 11:57:50;;;;;;;8.30;7.70;;;15.40;19.70;;;;;;5056054;28;20812;-80
2024/02/15 12:19:53;;;;;;;9.33;8.80;;;15.70;20.10;;;;;;5055459;28;20406;-80
2024/02/15 12:22:21;;;;;;;7.30;7.00;;;15.70;19.30;;;;;;5056009;28;20413;-78
2024/02/15 12:24:57;;;;;;;7.30;6.70;;;15.70;19.00;;;;;;5056585;28;20955;-79
2024/02/15 12:27:24;;;;;;;7.80;7.40;;;15.80;18.90;;;;;;5053267;28;20519;-80
2024/02/15 12:29:59;;;;;;;8.03;7.73;;;15.80;18.90;;;;;;5056648;28;20423;-79
2024/02/15 12:32:26;;;;;;;7.57;7.17;;;15.80;18.60;;;;;;5050113;28;20422;-79
2024/02/15 12:34:52;;;;;;;7.57;7.00;;;15.80;18.60;;;;;;5052803;28;20468;-78
2024/02/15 12:37:20;;;;;;;6.73;6.40;;;15.90;18.40;;;;;;5048941;28;20467;-77
2024/02/15 12:39:49;;;;;;;7.50;7.00;;;15.90;18.20;;;;;;5051489;28;20433;-79
2024/02/15 12:42:16;;;;;;;7.43;7.13;;;16.00;18.80;;;;;;5054647;28;20493;-79
2024/02/15 12:44:48;;;;;;;6.73;6.53;;;15.90;18.80;;;;;;5047731;28;20433;-78
2024/02/15 12:47:18;;;;;;;6.60;6.30;;;16.00;17.90;;;;;;5053995;28;21025;-79
2024/02/15 12:49:44;;;;;;;7.37;6.97;;;16.00;16.80;;;;;;5048408;28;20415;-79
2024/02/15 12:52:38;;;;;;;6.40;6.10;;;16.00;16.90;;;;;;5057046;28;20479;-80
2024/02/15 12:55:19;;;;;;;6.97;6.37;;;16.10;16.90;;;;;;5045012;28;20547;-79
2024/02/15 12:57:50;;;;;;;6.97;6.57;;;16.20;17.50;;;;;;5056122;28;20458;-80
2024/02/15 13:00:18;;;;;;;6.40;5.80;;;16.10;16.80;;;;;;5048596;28;20434;-80
2024/02/15 13:02:51;;;;;;;5.70;5.40;;;16.20;17.10;;;;;;5054645;28;20411;-78
2024/02/15 13:05:34;;;;;;;6.30;6.10;;;16.10;16.80;;;;;;5056714;28;20431;-81
2024/02/15 13:08:02;;;;;;;6.03;5.73;;;16.20;16.90;;;;;;5056472;28;20957;-80
2024/02/15 13:10:28;;;;;;;6.60;6.30;;;16.20;17.50;;;;;;5056187;28;20450;-78
2024/02/15 13:12:55;;;;;;;6.70;6.30;;;16.20;18.00;;;;;;5055628;28;20451;-79
2024/02/15 13:15:21;;;;;;;6.83;6.43;;;16.20;18.10;;;;;;5056851;28;20421;-80
2024/02/15 13:17:54;;;;;;;6.63;6.37;;;16.20;17.70;;;;;;5054312;28;20470;-78
2024/02/15 13:20:27;;;;;;;5.80;5.50;;;16.20;16.50;;;;;;5054456;28;20482;-80
2024/02/15 13:22:53;;;;;;;5.53;5.33;;;16.20;17.80;;;;;;5050348;28;20407;-79